»·PEaware :: N733AM KRNM-KPSP

N733AM :: KRNM-KPSP

FLIGHT INFORMATION

Flight Status: Arrived
Operator: Privately registered:
United States
More flights under this callsign
Pilot: Craig J. (295)
Aircraft: EXTRA 300 350
(E300)
More flights by this aircraft type
Origin: KRNM Ramona
United States
Destination: KPSP Palm Springs Intl
United States
More flights between these airports :: More routes between these airports
Route: +ODP ROBNN V208 TRM
File this flight plan on PilotEdge
Remarks:
Altitude:
(Current/Filed)
11,000ft
Speed:
(Current/Filed)
0kts
Departed: 17-Dec-11 08:46 PM
Arrived: 17-Dec-11 09:52 PM
Distance/Time
Traveled:
52nm/1:06
Distance/Time
To Go:
Arrived

Flight Plot

Page will automatically refresh every two minutes.


Map Options




Map Legend


Flown Route
Filed Route
Departure Airport
Arrival Airport
Navaid (VOR, NDB)
Fix

Horizontal Profiles

Position Reports

Time Latitude Longitude Heading Altitude Ground
Speed
17-Dec-11 20:25 33.040160 -116.911467 135 1396ft 0kts
17-Dec-11 20:26 33.040159 -116.911466 135 1396ft 0kts
17-Dec-11 20:27 33.040158 -116.911465 135 1396ft 0kts
17-Dec-11 20:28 33.040157 -116.911464 135 1396ft 0kts
17-Dec-11 20:29 33.040157 -116.911463 135 1396ft 0kts
17-Dec-11 20:30 33.040156 -116.911463 135 1396ft 0kts
17-Dec-11 20:31 33.040155 -116.911462 135 1396ft 0kts
17-Dec-11 20:32 33.040154 -116.911461 135 1396ft 0kts
17-Dec-11 20:33 33.040153 -116.911460 135 1396ft 0kts
17-Dec-11 20:34 33.040153 -116.911459 135 1396ft 0kts
17-Dec-11 20:35 33.040152 -116.911458 135 1396ft 0kts
17-Dec-11 20:36 33.040152 -116.911458 135 1396ft 0kts
17-Dec-11 20:37 33.040151 -116.911457 135 1396ft 0kts
17-Dec-11 20:38 33.040150 -116.911456 135 1396ft 0kts
17-Dec-11 20:39 33.040150 -116.911456 135 1396ft 0kts
17-Dec-11 20:40 33.040149 -116.911455 135 1396ft 0kts
17-Dec-11 20:41 33.040149 -116.911455 135 1396ft 0kts
17-Dec-11 20:42 33.039927 -116.911139 131 1396ft 23kts
17-Dec-11 20:43 33.038259 -116.907348 180 1396ft 0kts
17-Dec-11 20:44 33.038257 -116.907348 180 1396ft 1kts
17-Dec-11 20:45 33.039655 -116.926490 261 1741ft 84kts
17-Dec-11 20:47 33.055054 -116.972746 342 3277ft 83kts
17-Dec-11 20:48 33.077673 -116.978334 356 4003ft 87kts
17-Dec-11 20:49 33.101869 -116.972819 28 4699ft 91kts
17-Dec-11 20:50 33.119671 -116.983507 311 5330ft 77kts
17-Dec-11 20:51 33.130515 -117.006255 300 5867ft 80kts
17-Dec-11 20:52 33.144935 -117.030250 336 6260ft 95kts
17-Dec-11 20:53 33.164535 -117.051514 316 6781ft 98kts
17-Dec-11 20:54 33.185502 -117.071655 333 7255ft 96kts
17-Dec-11 20:55 33.200472 -117.068240 103 7665ft 74kts
17-Dec-11 20:56 33.196911 -117.043191 104 8057ft 77kts
17-Dec-11 20:57 33.194507 -117.017598 101 8444ft 78kts
17-Dec-11 20:58 33.190895 -116.992182 91 8793ft 77kts
17-Dec-11 20:59 33.188836 -116.967161 97 9190ft 71kts
17-Dec-11 21:01 33.182927 -116.922204 96 9948ft 70kts
17-Dec-11 21:02 33.179668 -116.899858 106 10306ft 68kts
17-Dec-11 21:03 33.176356 -116.877351 102 10627ft 68kts
17-Dec-11 21:04 33.174464 -116.854536 81 10911ft 71kts
17-Dec-11 21:05 33.178982 -116.829579 115 10987ft 75kts
17-Dec-11 21:06 33.173181 -116.804184 98 11012ft 86kts
17-Dec-11 21:07 33.173004 -116.775692 86 10998ft 85kts
17-Dec-11 21:08 33.163996 -116.750559 98 11024ft 82kts
17-Dec-11 21:09 33.158384 -116.724111 115 11038ft 83kts
17-Dec-11 21:10 33.150845 -116.698684 99 11045ft 82kts
17-Dec-11 21:11 33.151004 -116.670245 82 10997ft 87kts
17-Dec-11 21:12 33.150316 -116.642750 102 10987ft 85kts
17-Dec-11 21:13 33.147283 -116.615030 104 11001ft 83kts
17-Dec-11 21:14 33.136709 -116.590175 124 11004ft 85kts
17-Dec-11 21:16 33.174138 -116.556691 53 10995ft 92kts
17-Dec-11 21:17 33.194446 -116.543616 30 10982ft 102kts
17-Dec-11 21:18 33.218273 -116.526842 51 10981ft 97kts
17-Dec-11 21:19 33.237567 -116.506302 56 11050ft 90kts
17-Dec-11 21:20 33.261894 -116.484145 53 11015ft 94kts
17-Dec-11 21:21 33.280314 -116.467806 48 11008ft 97kts
17-Dec-11 21:22 33.300644 -116.447057 46 11024ft 98kts
17-Dec-11 21:23 33.322362 -116.427975 46 11046ft 97kts
17-Dec-11 21:24 33.347393 -116.413376 27 11044ft 103kts
17-Dec-11 21:25 33.373209 -116.401475 58 11059ft 90kts
17-Dec-11 21:26 33.391368 -116.379647 50 11003ft 98kts
17-Dec-11 21:27 33.408864 -116.357326 61 11025ft 92kts
17-Dec-11 21:28 33.428167 -116.336722 52 11036ft 93kts
17-Dec-11 21:29 33.448819 -116.317902 42 11061ft 95kts
17-Dec-11 21:30 33.470619 -116.299923 45 11060ft 95kts
17-Dec-11 21:31 33.489242 -116.278941 53 11053ft 93kts
17-Dec-11 21:32 33.513729 -116.264424 48 11038ft 95kts
17-Dec-11 21:33 33.534453 -116.245193 39 11029ft 99kts
17-Dec-11 21:34 33.557011 -116.227707 42 11041ft 96kts
17-Dec-11 21:35 33.576669 -116.207243 54 11058ft 91kts
17-Dec-11 21:36 33.597567 -116.187717 48 11032ft 95kts
17-Dec-11 21:37 33.620612 -116.170889 38 10230ft 95kts
17-Dec-11 21:38 33.644833 -116.178339 303 9205ft 119kts
17-Dec-11 21:39 33.659068 -116.213096 302 8310ft 110kts
17-Dec-11 21:40 33.677296 -116.242583 315 7417ft 107kts
17-Dec-11 21:41 33.692227 -116.273795 295 6530ft 106kts
17-Dec-11 21:42 33.705166 -116.305396 306 5664ft 104kts
17-Dec-11 21:43 33.722243 -116.332589 307 4846ft 101kts
17-Dec-11 21:44 33.739079 -116.359321 313 4046ft 98kts
17-Dec-11 21:45 33.756743 -116.384233 310 3282ft 96kts
17-Dec-11 21:46 33.772838 -116.408146 311 2653ft 87kts
17-Dec-11 21:47 33.786453 -116.432351 305 2077ft 88kts
17-Dec-11 21:48 33.799207 -116.456929 288 1578ft 87kts
17-Dec-11 21:49 33.808973 -116.483301 295 1147ft 73kts
17-Dec-11 21:50 33.820593 -116.499466 319 499ft 63kts
17-Dec-11 21:51 33.830567 -116.506548 37 480ft 36kts
17-Dec-11 21:52 33.832224 -116.504669 309 480ft 0kts

Navigation Log

Ident Type
Flight plan parsing failed, navigation log unavailable